Details for Thomas Cook Airlines at EGNT




Go Back


Latest METAR
Local Time

EGNT 232350Z 17008KT 130V210 9999 BKN024 02/M03 Q1023

24/02/2018, 00:07:46

Description
Results
Thomas Cook Airlines Logo
Number of Pilots based at EGNT
1 Pilots Based here
Number of Thomas Cook Airlines Flights Departed from EGNT
0 Flights Departed
Number of Thomas Cook Airlines Flights Arrived at EGNT
0 Flights Arrived
Number of Thomas Cook Airlines Schedules Departing from EGNT
6 Schedules
Number of Thomas Cook Airlines Schedules Arriving at EGNT
8 Schedules
Number of Thomas Cook Airlines Schedules Departing from EGNT availible today
1 Schedules Today
Number of Thomas Cook Airlines Schedules Arriving at EGNT availible today
2 Schedules Today
Average Landing Rate at EGNT
-268 fpm
Thomas Cook Airlines Average Landing Rate at EGNT
0 fpm
Total Fuel Purchased at EGNT by Thomas Cook Airlines
0.00 kgs / 0.00 lbs

Pilots Based at EGNT


Pilot ID
Pilot Name
Pilot Rank
No. of Flights
No. of Flying Hours
Michael Gow
114
354.04
Content